Time;durP1;ratioP1;P1;durP2;ratioP2;P2;SDS_P1;SDS_P2;PMS_P1;PMS_P2;Temp;Humidity;BMP_temperature;BMP_pressure;BME280_temperature;BME280_humidity;BME280_pressure;Samples;Min_cycle;Max_cycle;Signal;HPM_P1;HPM_P2
2023/10/24 00:00:44;;;;;;;16.60;13.77;;;;;22.00;99244.00;;;;2063712;28;20216;-65
2023/10/24 00:01:44;;;;;;;16.17;13.00;;;;;22.00;99240.00;;;;2066064;28;20277;-65
2023/10/24 00:02:44;;;;;;;14.47;12.97;;;;;22.00;99223.00;;;;2068745;28;20214;-65
2023/10/24 00:03:45;;;;;;;16.10;13.53;;;;;22.00;99231.00;;;;2059876;28;20278;-65
2023/10/24 00:04:45;;;;;;;15.00;13.37;;;;;22.00;99229.00;;;;2054398;28;20211;-65
2023/10/24 00:05:47;;;;;;;17.30;13.77;;;;;22.00;99229.00;;;;2066567;28;20230;-65
2023/10/24 00:06:48;;;;;;;14.80;12.48;;;;;22.00;99234.00;;;;2063381;28;20261;-65
2023/10/24 00:07:49;;;;;;;15.87;12.83;;;;;22.00;99233.00;;;;2062992;28;20215;-65
2023/10/24 00:08:50;;;;;;;14.90;11.88;;;;;22.00;99232.00;;;;2058357;28;20207;-65
2023/10/24 00:09:50;;;;;;;13.87;12.37;;;;;22.00;99236.00;;;;2051410;28;20273;-65
2023/10/24 00:10:59;;;;;;;17.30;12.83;;;;;22.00;99230.00;;;;2069010;28;21014;-65
2023/10/24 00:11:59;;;;;;;14.88;12.32;;;;;22.00;99231.00;;;;2065284;28;20274;-65
2023/10/24 00:12:59;;;;;;;15.10;11.70;;;;;22.00;99231.00;;;;2065666;28;20262;-65
2023/10/24 00:14:00;;;;;;;13.83;11.70;;;;;22.00;99233.00;;;;2066127;28;20231;-65
2023/10/24 00:15:00;;;;;;;13.23;11.70;;;;;22.00;99203.00;;;;2057700;28;20215;-65
2023/10/24 00:16:00;;;;;;;15.10;12.27;;;;;22.00;99230.00;;;;2068649;28;20214;-65
2023/10/24 00:17:01;;;;;;;12.30;10.40;;;;;22.00;99191.00;;;;2075820;28;20221;-65
2023/10/24 00:18:01;;;;;;;12.83;10.93;;;;;22.00;99229.00;;;;2065441;28;20219;-65
2023/10/24 00:19:01;;;;;;;13.07;11.10;;;;;22.00;99225.00;;;;2074783;28;20213;-65
2023/10/24 00:20:02;;;;;;;13.97;11.97;;;;;22.00;99235.00;;;;2061283;28;20214;-65
2023/10/24 00:21:02;;;;;;;13.30;11.30;;;;;22.00;99231.00;;;;2069289;28;20249;-65
2023/10/24 00:22:03;;;;;;;13.50;11.80;;;;;22.00;99234.00;;;;2068795;28;20218;-65
2023/10/24 00:23:03;;;;;;;12.57;11.00;;;;;21.90;99229.00;;;;2065016;28;20211;-65
2023/10/24 00:24:04;;;;;;;13.50;11.47;;;;;21.90;99230.00;;;;2070182;28;20213;-65
2023/10/24 00:25:05;;;;;;;12.37;9.93;;;;;21.90;99207.00;;;;2054795;28;20953;-65
2023/10/24 00:26:06;;;;;;;11.83;10.57;;;;;21.90;99228.00;;;;2061503;28;20210;-65
2023/10/24 00:27:06;;;;;;;14.93;10.53;;;;;21.90;99220.00;;;;2058999;28;20454;-65
2023/10/24 00:28:06;;;;;;;12.50;10.57;;;;;21.90;99217.00;;;;2062848;28;20502;-66
2023/10/24 00:29:07;;;;;;;13.57;10.80;;;;;21.90;99223.00;;;;2053837;28;20215;-66
2023/10/24 00:30:07;;;;;;;13.27;9.87;;;;;21.90;99215.00;;;;2046608;28;20305;-66
2023/10/24 00:31:08;;;;;;;12.20;10.10;;;;;21.90;99220.00;;;;2060627;28;20214;-66
2023/10/24 00:32:08;;;;;;;11.33;9.40;;;;;21.90;99079.00;;;;2066056;28;20230;-67
2023/10/24 00:33:08;;;;;;;13.30;9.70;;;;;21.90;99220.00;;;;2057895;28;20215;-66
2023/10/24 00:34:12;;;;;;;13.27;10.50;;;;;21.90;99231.00;;;;2055517;28;20740;-66
2023/10/24 00:35:12;;;;;;;10.73;9.63;;;;;21.90;99219.00;;;;2049352;28;20230;-66
2023/10/24 00:36:12;;;;;;;11.07;9.20;;;;;21.90;99213.00;;;;2061612;28;20212;-66
2023/10/24 00:37:13;;;;;;;12.40;10.37;;;;;21.90;99218.00;;;;2061946;28;20214;-66
2023/10/24 00:38:13;;;;;;;9.93;8.73;;;;;21.90;99217.00;;;;2062450;28;20612;-66
2023/10/24 00:39:17;;;;;;;12.20;9.40;;;;;21.90;99208.00;;;;2055647;28;20551;-66
2023/10/24 00:40:18;;;;;;;11.85;9.55;;;;;21.90;99210.00;;;;2049793;28;20314;-67
2023/10/24 00:41:19;;;;;;;11.20;9.15;;;;;21.90;99208.00;;;;2055918;28;20223;-67
2023/10/24 00:42:19;;;;;;;11.00;9.30;;;;;21.90;99217.00;;;;2062896;28;20215;-67
2023/10/24 00:43:19;;;;;;;10.70;9.30;;;;;21.90;99215.00;;;;2064123;28;20242;-67
2023/10/24 00:44:20;;;;;;;11.83;8.70;;;;;21.90;99213.00;;;;2061368;28;20239;-67
2023/10/24 00:45:20;;;;;;;10.77;8.77;;;;;21.90;99214.00;;;;2049864;28;20237;-67
2023/10/24 00:46:20;;;;;;;11.27;9.17;;;;;21.90;99208.00;;;;2061291;28;20285;-67
2023/10/24 00:47:21;;;;;;;9.37;8.10;;;;;21.90;99204.00;;;;2077256;28;20213;-67
2023/10/24 00:48:21;;;;;;;9.63;8.27;;;;;21.90;99207.00;;;;2069207;28;20217;-67
2023/10/24 00:49:21;;;;;;;10.60;9.00;;;;;21.90;99220.00;;;;2061321;28;20237;-67
2023/10/24 00:50:22;;;;;;;10.57;8.20;;;;;21.90;99218.00;;;;2051490;28;20634;-67
2023/10/24 00:51:22;;;;;;;10.53;8.20;;;;;21.90;99213.00;;;;2060866;28;20777;-66
2023/10/24 00:52:22;;;;;;;10.43;8.10;;;;;21.90;99216.00;;;;2044807;28;20401;-66
2023/10/24 00:53:38;;;;;;;8.90;7.95;;;;;21.90;99221.00;;;;2014455;29;20231;-66
2023/10/24 00:54:39;;;;;;;10.65;9.07;;;;;21.90;99162.00;;;;2030176;28;20624;-66
2023/10/24 00:55:39;;;;;;;9.33;7.67;;;;;21.90;99226.00;;;;2048413;28;20220;-66
2023/10/24 00:56:40;;;;;;;10.57;8.37;;;;;21.90;99223.00;;;;2053426;28;20581;-66
2023/10/24 00:57:40;;;;;;;10.70;7.47;;;;;21.90;99225.00;;;;2053671;28;20214;-66
2023/10/24 00:58:40;;;;;;;9.53;7.80;;;;;21.90;99215.00;;;;2061366;28;20309;-66
2023/10/24 00:59:41;;;;;;;9.43;7.87;;;;;21.90;99204.00;;;;2056051;28;20253;-66
2023/10/24 01:00:41;;;;;;;11.53;8.03;;;;;21.90;99221.00;;;;2061105;28;20215;-66
2023/10/24 01:01:42;;;;;;;8.53;7.43;;;;;21.90;99207.00;;;;2053202;28;20208;-66
2023/10/24 01:02:43;;;;;;;8.80;6.67;;;;;21.90;99213.00;;;;2062496;28;20273;-66
2023/10/24 01:03:43;;;;;;;8.60;7.13;;;;;21.90;99170.00;;;;2058528;28;20211;-66
2023/10/24 01:04:44;;;;;;;11.60;7.40;;;;;21.90;99217.00;;;;2045921;28;20462;-66
2023/10/24 01:05:44;;;;;;;8.40;6.97;;;;;21.90;99208.00;;;;2046724;28;20468;-66
2023/10/24 01:06:44;;;;;;;8.40;7.30;;;;;21.80;99190.00;;;;2054598;28;20253;-66
2023/10/24 01:07:45;;;;;;;9.63;7.60;;;;;21.90;99191.00;;;;2062443;28;20222;-66
2023/10/24 01:08:46;;;;;;;8.23;7.43;;;;;21.90;99198.00;;;;2071441;28;20736;-66
2023/10/24 01:09:46;;;;;;;10.27;7.40;;;;;21.80;99189.00;;;;2057110;28;20461;-66
2023/10/24 01:10:46;;;;;;;8.67;7.30;;;;;21.90;99203.00;;;;2068934;28;20224;-66
2023/10/24 01:11:49;;;;;;;8.20;7.30;;;;;21.90;99221.00;;;;2054780;28;20199;-66
2023/10/24 01:12:49;;;;;;;9.77;8.10;;;;;21.80;99206.00;;;;2057754;28;20223;-66
2023/10/24 01:13:50;;;;;;;9.23;6.80;;;;;21.90;99211.00;;;;2063064;28;20260;-66
2023/10/24 01:14:50;;;;;;;10.20;7.10;;;;;21.80;99213.00;;;;2047257;28;20231;-66
2023/10/24 01:15:50;;;;;;;8.20;7.33;;;;;21.80;99212.00;;;;2062525;28;20257;-66
2023/10/24 01:16:51;;;;;;;9.10;6.10;;;;;21.90;99212.00;;;;2070751;28;20226;-66
2023/10/24 01:17:52;;;;;;;8.63;7.57;;;;;21.90;99223.00;;;;2072302;28;20226;-66
2023/10/24 01:18:52;;;;;;;8.32;7.43;;;;;21.90;99227.00;;;;2070477;28;20280;-66
2023/10/24 01:19:52;;;;;;;8.67;7.20;;;;;21.90;99214.00;;;;2056866;28;20308;-66
2023/10/24 01:20:53;;;;;;;7.43;6.73;;;;;21.80;99225.00;;;;2065088;28;20229;-66
2023/10/24 01:21:53;;;;;;;9.30;7.20;;;;;21.80;99219.00;;;;2066318;28;20225;-66
2023/10/24 01:22:53;;;;;;;6.93;6.10;;;;;21.80;99222.00;;;;2064270;28;20215;-66
2023/10/24 01:23:54;;;;;;;8.60;6.63;;;;;21.80;99215.00;;;;2066734;28;20289;-66
2023/10/24 01:24:54;;;;;;;9.10;6.53;;;;;21.80;99213.00;;;;2047724;28;20207;-66
2023/10/24 01:25:54;;;;;;;8.43;6.23;;;;;21.80;99218.00;;;;2059322;28;20242;-66
2023/10/24 01:26:56;;;;;;;6.70;5.70;;;;;21.80;99224.00;;;;2054714;28;20219;-66
2023/10/24 01:27:56;;;;;;;6.93;5.90;;;;;21.90;99183.00;;;;2046747;28;20218;-66
2023/10/24 01:28:56;;;;;;;10.13;6.23;;;;;21.80;99226.00;;;;2049259;28;20223;-66
2023/10/24 01:29:57;;;;;;;7.50;6.60;;;;;21.80;99227.00;;;;2043554;28;20580;-66
2023/10/24 01:30:57;;;;;;;7.20;6.00;;;;;21.80;99213.00;;;;2063026;28;20745;-66
2023/10/24 01:31:57;;;;;;;6.90;6.20;;;;;21.80;99228.00;;;;2057245;28;20691;-66
2023/10/24 01:32:58;;;;;;;6.20;5.60;;;;;21.80;99212.00;;;;2061797;28;20686;-66
2023/10/24 01:33:58;;;;;;;9.27;6.00;;;;;21.80;99214.00;;;;2068881;28;20728;-66
2023/10/24 01:34:58;;;;;;;9.40;5.53;;;;;21.80;99218.00;;;;2052620;28;20222;-66
2023/10/24 01:35:59;;;;;;;7.40;5.80;;;;;21.80;99216.00;;;;2059319;28;20220;-66
2023/10/24 01:36:59;;;;;;;6.43;5.57;;;;;21.80;99208.00;;;;2057003;28;20323;-66
2023/10/24 01:38:00;;;;;;;8.37;5.87;;;;;21.80;99193.00;;;;2060278;28;20705;-66
2023/10/24 01:39:00;;;;;;;7.03;5.87;;;;;21.80;99214.00;;;;2062761;28;20610;-66
2023/10/24 01:40:00;;;;;;;8.17;6.43;;;;;21.80;99220.00;;;;2052118;28;20218;-66
2023/10/24 01:41:01;;;;;;;6.70;5.50;;;;;21.80;99187.00;;;;2063030;28;20304;-66
2023/10/24 01:42:01;;;;;;;5.53;5.00;;;;;21.80;99205.00;;;;2062753;28;20641;-66
2023/10/24 01:43:01;;;;;;;5.73;5.07;;;;;21.80;99212.00;;;;2057018;28;20212;-66
2023/10/24 01:44:02;;;;;;;6.00;5.30;;;;;21.80;99199.00;;;;2060015;28;20210;-66
2023/10/24 01:45:02;;;;;;;6.60;5.20;;;;;21.80;99216.00;;;;2051229;28;20218;-66
2023/10/24 01:46:03;;;;;;;7.03;5.67;;;;;21.80;99217.00;;;;2057278;28;20215;-66
2023/10/24 01:47:03;;;;;;;6.97;5.37;;;;;21.80;99218.00;;;;2058310;28;20204;-66
2023/10/24 01:48:04;;;;;;;7.47;5.77;;;;;21.80;99210.00;;;;2065043;28;20222;-66
2023/10/24 01:49:04;;;;;;;6.50;5.27;;;;;21.80;99205.00;;;;2057018;28;20211;-66
2023/10/24 01:50:05;;;;;;;5.57;4.60;;;;;21.80;99216.00;;;;2058493;28;20279;-66
2023/10/24 01:51:05;;;;;;;7.33;5.53;;;;;21.80;99211.00;;;;2070520;28;20272;-66
2023/10/24 01:52:06;;;;;;;6.30;4.93;;;;;21.80;99214.00;;;;2063785;28;20457;-66
2023/10/24 01:53:06;;;;;;;6.10;5.10;;;;;21.80;99214.00;;;;2065579;28;20203;-66
2023/10/24 01:54:06;;;;;;;7.73;4.70;;;;;21.80;99218.00;;;;2058763;28;20211;-66
2023/10/24 01:55:07;;;;;;;6.00;5.13;;;;;21.80;99215.00;;;;2055176;28;20237;-66
2023/10/24 01:56:10;;;;;;;6.07;4.53;;;;;21.80;99221.00;;;;2072298;28;20217;-66
2023/10/24 01:57:10;;;;;;;5.85;4.78;;;;;21.80;99217.00;;;;2065670;28;20214;-66
2023/10/24 01:58:10;;;;;;;7.70;5.13;;;;;21.80;99228.00;;;;2058773;28;20228;-66
2023/10/24 01:59:11;;;;;;;5.20;4.30;;;;;21.80;99220.00;;;;2068841;28;20217;-66
2023/10/24 02:00:12;;;;;;;6.90;4.70;;;;;21.80;99214.00;;;;2061724;28;20230;-66
2023/10/24 02:01:12;;;;;;;6.67;5.33;;;;;21.80;99214.00;;;;2075023;28;20217;-67
2023/10/24 02:02:12;;;;;;;6.87;5.23;;;;;21.80;99210.00;;;;2057912;28;20470;-67
2023/10/24 02:03:13;;;;;;;5.90;4.27;;;;;21.80;99180.00;;;;2070303;28;20246;-67
2023/10/24 02:04:13;;;;;;;6.50;4.60;;;;;21.80;99209.00;;;;2070663;28;20613;-67
2023/10/24 02:05:14;;;;;;;5.03;4.20;;;;;21.80;99197.00;;;;2038094;29;20712;-67
2023/10/24 02:06:14;;;;;;;5.37;4.60;;;;;21.80;99201.00;;;;2050058;28;20749;-67
2023/10/24 02:07:19;;;;;;;6.47;4.60;;;;;21.80;99207.00;;;;2062189;28;20235;-67
2023/10/24 02:08:19;;;;;;;4.63;4.10;;;;;21.80;99204.00;;;;2065759;28;20223;-67
2023/10/24 02:09:20;;;;;;;6.03;5.07;;;;;21.80;99213.00;;;;2072412;28;20245;-66
2023/10/24 02:10:20;;;;;;;5.93;4.53;;;;;21.80;99187.00;;;;2054198;28;20214;-66
2023/10/24 02:11:21;;;;;;;4.77;4.17;;;;;21.80;99210.00;;;;2074270;28;20217;-66
2023/10/24 02:12:22;;;;;;;6.00;4.07;;;;;21.70;99206.00;;;;2063250;28;20207;-66
2023/10/24 02:13:22;;;;;;;4.80;4.22;;;;;21.80;99193.00;;;;2066867;28;20241;-66
2023/10/24 02:14:22;;;;;;;6.40;4.43;;;;;21.80;99182.00;;;;2068724;28;22477;-66
2023/10/24 02:15:23;;;;;;;5.17;4.67;;;;;21.80;99209.00;;;;2062910;28;20701;-66
2023/10/24 02:16:23;;;;;;;5.07;4.13;;;;;21.80;99198.00;;;;2079084;28;20287;-66
2023/10/24 02:17:24;;;;;;;5.43;4.10;;;;;21.80;99211.00;;;;2064819;28;20939;-66
2023/10/24 02:18:24;;;;;;;5.07;4.23;;;;;21.70;99207.00;;;;2076378;28;20256;-66
2023/10/24 02:19:25;;;;;;;5.90;4.30;;;;;21.80;99205.00;;;;2064940;28;20600;-66
2023/10/24 02:20:25;;;;;;;4.20;3.77;;;;;21.70;99197.00;;;;2057961;28;20993;-66
2023/10/24 02:21:26;;;;;;;4.30;3.83;;;;;21.80;99195.00;;;;2066495;28;20656;-66
2023/10/24 02:22:26;;;;;;;4.50;3.70;;;;;21.80;99162.00;;;;2063883;28;20226;-66
2023/10/24 02:23:26;;;;;;;4.67;3.50;;;;;21.70;99213.00;;;;2063877;28;20258;-66
2023/10/24 02:24:27;;;;;;;4.13;3.73;;;;;21.80;99205.00;;;;2063275;28;20211;-66
2023/10/24 02:25:27;;;;;;;6.00;4.20;;;;;21.70;99212.00;;;;2062508;28;20311;-66
2023/10/24 02:26:27;;;;;;;5.10;4.33;;;;;21.70;99202.00;;;;2056849;28;20268;-66
2023/10/24 02:27:28;;;;;;;5.83;3.90;;;;;21.70;99214.00;;;;2061223;28;20229;-66
2023/10/24 02:28:28;;;;;;;4.40;3.97;;;;;21.70;99222.00;;;;2067143;28;20222;-66
2023/10/24 02:29:32;;;;;;;5.50;4.00;;;;;21.70;99212.00;;;;2063992;28;20333;-66
2023/10/24 02:30:36;;;;;;;5.85;4.43;;;;;21.70;99162.00;;;;2060812;28;20218;-66
2023/10/24 02:31:36;;;;;;;4.80;3.70;;;;;21.70;99155.00;;;;2061993;28;20222;-66
2023/10/24 02:32:37;;;;;;;4.80;3.67;;;;;21.70;99213.00;;;;2060692;28;20583;-66
2023/10/24 02:33:37;;;;;;;5.20;4.03;;;;;21.70;99213.00;;;;2056025;28;20583;-66
2023/10/24 02:34:38;;;;;;;4.90;3.30;;;;;21.70;99219.00;;;;2050521;28;21197;-66
2023/10/24 02:35:38;;;;;;;4.20;3.30;;;;;21.70;99223.00;;;;2071563;28;20852;-66
2023/10/24 02:36:38;;;;;;;4.70;3.60;;;;;21.70;99212.00;;;;2070878;28;20238;-66
2023/10/24 02:37:39;;;;;;;4.60;3.27;;;;;21.70;99221.00;;;;2069830;28;20205;-66
2023/10/24 02:38:39;;;;;;;4.03;3.63;;;;;21.70;99216.00;;;;2061456;28;20231;-66
2023/10/24 02:39:39;;;;;;;4.80;3.20;;;;;21.70;99220.00;;;;2048860;28;20216;-66
2023/10/24 02:40:40;;;;;;;4.00;3.43;;;;;21.70;99216.00;;;;2064504;28;20211;-66
2023/10/24 02:41:40;;;;;;;5.90;4.00;;;;;21.70;99213.00;;;;2062842;28;20242;-66
2023/10/24 02:42:40;;;;;;;3.90;3.27;;;;;21.70;99228.00;;;;2063850;28;20219;-66
2023/10/24 02:43:41;;;;;;;4.73;3.80;;;;;21.70;99234.00;;;;2061651;28;20211;-66
2023/10/24 02:44:41;;;;;;;5.57;3.37;;;;;21.70;99225.00;;;;2054023;28;20606;-66
2023/10/24 02:45:41;;;;;;;3.93;3.33;;;;;21.70;99230.00;;;;2062176;28;20705;-66
2023/10/24 02:46:42;;;;;;;4.13;2.93;;;;;21.70;99232.00;;;;2056995;28;20692;-66
2023/10/24 02:47:42;;;;;;;3.77;3.07;;;;;21.70;99220.00;;;;2064566;28;20705;-66
2023/10/24 02:48:42;;;;;;;3.83;3.13;;;;;21.70;99232.00;;;;2061251;28;20705;-66
2023/10/24 02:49:43;;;;;;;4.60;3.00;;;;;21.70;99228.00;;;;2055297;28;21822;-66
2023/10/24 02:50:43;;;;;;;3.70;3.13;;;;;21.70;99226.00;;;;2072466;28;21060;-66
2023/10/24 02:51:44;;;;;;;9.93;3.80;;;;;21.70;99233.00;;;;2070085;28;20291;-66
2023/10/24 02:52:45;;;;;;;3.50;3.20;;;;;21.70;99230.00;;;;2072534;28;20308;-66
2023/10/24 02:53:46;;;;;;;3.70;3.20;;;;;21.70;99235.00;;;;2070227;28;20203;-66
2023/10/24 02:54:46;;;;;;;3.90;3.17;;;;;21.70;99236.00;;;;2059273;28;20207;-66
2023/10/24 02:55:47;;;;;;;3.80;3.40;;;;;21.70;99245.00;;;;2068238;28;20632;-66
2023/10/24 02:56:47;;;;;;;3.83;3.10;;;;;21.70;99243.00;;;;2060107;28;20207;-66
2023/10/24 02:57:48;;;;;;;5.00;3.10;;;;;21.70;99247.00;;;;2057849;28;20791;-66
2023/10/24 02:58:48;;;;;;;3.53;2.80;;;;;21.70;99252.00;;;;2069469;28;20716;-66
2023/10/24 02:59:49;;;;;;;3.80;3.20;;;;;21.70;99255.00;;;;2057938;28;20211;-66
2023/10/24 03:00:49;;;;;;;3.00;2.50;;;;;21.70;99260.00;;;;2070378;28;20214;-66
2023/10/24 03:01:50;;;;;;;3.70;2.97;;;;;21.70;99247.00;;;;2068682;28;20616;-66
2023/10/24 03:02:50;;;;;;;3.43;2.87;;;;;21.70;99237.00;;;;2064511;28;20695;-66
2023/10/24 03:03:51;;;;;;;5.50;3.23;;;;;21.70;99243.00;;;;2059371;28;20998;-66
2023/10/24 03:04:52;;;;;;;3.13;2.80;;;;;21.70;99247.00;;;;2046374;28;20236;-66
2023/10/24 03:05:52;;;;;;;4.30;2.90;;;;;21.70;99252.00;;;;2061609;28;20203;-66
2023/10/24 03:06:52;;;;;;;4.10;2.87;;;;;21.70;99248.00;;;;2070252;28;20285;-66
2023/10/24 03:07:53;;;;;;;3.50;2.87;;;;;21.70;99252.00;;;;2068956;28;20230;-66
2023/10/24 03:08:53;;;;;;;5.73;2.80;;;;;21.70;99249.00;;;;2065355;28;20214;-66
2023/10/24 03:09:53;;;;;;;4.00;2.80;;;;;21.70;99245.00;;;;2056051;28;20308;-66
2023/10/24 03:10:54;;;;;;;3.53;3.10;;;;;21.70;99244.00;;;;2068520;28;20880;-66
2023/10/24 03:11:54;;;;;;;3.83;2.83;;;;;21.70;99246.00;;;;2058983;28;20286;-66
2023/10/24 03:12:56;;;;;;;4.43;2.90;;;;;21.70;99255.00;;;;2059974;28;20257;-66
2023/10/24 03:13:56;;;;;;;3.05;2.75;;;;;21.70;99257.00;;;;2072441;28;20222;-66
2023/10/24 03:14:56;;;;;;;3.90;2.53;;;;;21.70;99259.00;;;;2057836;28;20242;-66
2023/10/24 03:16:04;;;;;;;4.70;2.90;;;;;21.70;99266.00;;;;2073007;28;20288;-66
2023/10/24 03:17:04;;;;;;;3.13;2.55;;;;;21.70;99263.00;;;;2064427;28;20302;-66
2023/10/24 03:18:05;;;;;;;4.10;2.80;;;;;21.70;99254.00;;;;2068372;28;20218;-66
2023/10/24 03:19:05;;;;;;;4.00;2.80;;;;;21.70;99239.00;;;;2067737;28;20242;-66
2023/10/24 03:20:06;;;;;;;5.03;3.20;;;;;21.70;99232.00;;;;2051629;28;20211;-66
2023/10/24 03:21:07;;;;;;;3.40;2.93;;;;;21.70;99229.00;;;;2071855;28;20222;-66
2023/10/24 03:22:07;;;;;;;2.88;2.58;;;;;21.70;99228.00;;;;2070418;28;20214;-66
2023/10/24 03:23:09;;;;;;;3.00;2.40;;;;;21.70;99228.00;;;;2071626;28;20221;-66
2023/10/24 03:24:09;;;;;;;6.05;2.85;;;;;21.70;99241.00;;;;2072340;28;20263;-66
2023/10/24 03:25:09;;;;;;;3.27;2.70;;;;;21.70;99238.00;;;;2060013;28;20206;-66
2023/10/24 03:26:10;;;;;;;4.10;2.87;;;;;21.70;99244.00;;;;2079049;28;20210;-66
2023/10/24 03:27:13;;;;;;;2.87;2.37;;;;;21.70;99245.00;;;;2069111;28;20254;-66
2023/10/24 03:28:14;;;;;;;4.20;2.70;;;;;21.70;99236.00;;;;2064449;28;20210;-66
2023/10/24 03:29:14;;;;;;;3.13;2.70;;;;;21.70;99238.00;;;;2063262;28;20218;-66
2023/10/24 03:30:15;;;;;;;3.90;2.80;;;;;21.70;99224.00;;;;2068350;28;20887;-66
2023/10/24 03:31:15;;;;;;;3.30;2.60;;;;;21.70;99222.00;;;;2072370;28;20542;-66
2023/10/24 03:32:15;;;;;;;2.97;2.67;;;;;21.70;99235.00;;;;2070832;28;20577;-66
2023/10/24 03:33:16;;;;;;;3.30;2.33;;;;;21.70;99238.00;;;;2072422;28;20214;-66
2023/10/24 03:34:16;;;;;;;3.20;2.20;;;;;21.70;99249.00;;;;2068923;28;20221;-66
2023/10/24 03:35:17;;;;;;;4.70;2.80;;;;;21.60;99254.00;;;;2060681;28;20214;-66
2023/10/24 03:36:17;;;;;;;3.67;2.57;;;;;21.70;99250.00;;;;2072316;28;20625;-66
2023/10/24 03:37:20;;;;;;;3.13;2.40;;;;;21.70;99242.00;;;;2074204;28;20457;-66
2023/10/24 03:38:20;;;;;;;3.78;2.75;;;;;21.70;99256.00;;;;2072185;28;20630;-66
2023/10/24 03:39:20;;;;;;;5.47;2.67;;;;;21.70;99250.00;;;;2075691;28;20268;-66
2023/10/24 03:40:23;;;;;;;3.20;2.53;;;;;21.70;99249.00;;;;2049527;28;20675;-66
2023/10/24 03:41:23;;;;;;;3.50;2.20;;;;;21.70;99256.00;;;;2059247;28;20301;-66
2023/10/24 03:42:23;;;;;;;3.47;2.70;;;;;21.70;99255.00;;;;2061202;28;20264;-66
2023/10/24 03:43:24;;;;;;;3.43;2.80;;;;;21.70;99258.00;;;;2056072;28;20223;-66
2023/10/24 03:44:24;;;;;;;3.20;2.47;;;;;21.70;99249.00;;;;2062328;28;20215;-66
2023/10/24 03:45:24;;;;;;;3.70;2.50;;;;;21.60;99243.00;;;;2050300;28;20230;-66
2023/10/24 03:46:25;;;;;;;3.43;2.23;;;;;21.60;99224.00;;;;2067707;28;20225;-66
2023/10/24 03:47:25;;;;;;;4.60;2.50;;;;;21.60;99221.00;;;;2070440;28;20218;-66
2023/10/24 03:48:25;;;;;;;3.07;2.23;;;;;21.60;99229.00;;;;2065008;28;20217;-66
2023/10/24 03:49:26;;;;;;;3.20;2.20;;;;;21.70;99247.00;;;;2064047;28;20222;-66
2023/10/24 03:50:26;;;;;;;3.07;2.00;;;;;21.70;99253.00;;;;2066404;28;20228;-66
2023/10/24 03:51:26;;;;;;;2.90;2.53;;;;;21.70;99259.00;;;;2075032;28;20214;-66
2023/10/24 03:52:27;;;;;;;3.97;2.53;;;;;21.60;99253.00;;;;2071163;28;20214;-66
2023/10/24 03:53:27;;;;;;;2.53;2.13;;;;;21.70;99245.00;;;;2065807;28;20293;-66
2023/10/24 03:54:29;;;;;;;3.23;2.37;;;;;21.70;99237.00;;;;2061379;28;20285;-66
2023/10/24 03:55:30;;;;;;;3.30;2.30;;;;;21.60;99180.00;;;;2060279;28;20557;-66
2023/10/24 03:56:32;;;;;;;3.20;2.40;;;;;21.70;99229.00;;;;2075872;28;20302;-66
2023/10/24 03:57:32;;;;;;;2.95;2.30;;;;;21.60;99234.00;;;;2063909;28;20227;-67
2023/10/24 03:58:32;;;;;;;3.20;2.30;;;;;21.60;99237.00;;;;2067529;28;20394;-66
2023/10/24 03:59:33;;;;;;;2.67;2.10;;;;;21.60;99249.00;;;;2052730;28;20227;-66
2023/10/24 04:00:33;;;;;;;3.67;1.97;;;;;21.60;99237.00;;;;2071323;28;20248;-66
2023/10/24 04:01:36;;;;;;;2.83;2.17;;;;;21.60;99205.00;;;;2066449;28;20231;-66
2023/10/24 04:02:36;;;;;;;3.08;2.28;;;;;21.60;99223.00;;;;2056859;28;20235;-66
2023/10/24 04:03:36;;;;;;;2.80;2.00;;;;;21.60;99220.00;;;;2061626;28;20224;-66
2023/10/24 04:04:37;;;;;;;3.93;2.50;;;;;21.60;99224.00;;;;2046862;28;20219;-66
2023/10/24 04:05:38;;;;;;;3.23;2.27;;;;;21.60;99224.00;;;;2059667;28;20742;-66
2023/10/24 04:06:38;;;;;;;2.97;2.30;;;;;21.60;99222.00;;;;2060815;28;20675;-66
2023/10/24 04:07:39;;;;;;;2.80;2.03;;;;;21.60;99232.00;;;;2062902;28;20479;-66
2023/10/24 04:08:39;;;;;;;2.77;2.47;;;;;21.60;99229.00;;;;2061357;28;20285;-66
2023/10/24 04:09:39;;;;;;;2.60;1.97;;;;;21.60;99229.00;;;;2052688;28;20219;-66
2023/10/24 04:10:40;;;;;;;4.80;2.33;;;;;21.60;99227.00;;;;2057677;28;20211;-66
2023/10/24 04:11:40;;;;;;;3.47;2.63;;;;;21.60;99225.00;;;;2060204;28;20250;-66
2023/10/24 04:12:41;;;;;;;2.37;2.00;;;;;21.60;99223.00;;;;2060907;28;20219;-66
2023/10/24 04:13:45;;;;;;;4.40;2.23;;;;;21.60;99187.00;;;;2060878;28;20245;-66
2023/10/24 04:14:45;;;;;;;2.70;1.90;;;;;21.60;99228.00;;;;2052233;28;20214;-66
2023/10/24 04:15:46;;;;;;;3.40;1.90;;;;;21.60;99233.00;;;;2068063;28;20207;-66
2023/10/24 04:16:46;;;;;;;3.53;2.00;;;;;21.60;99225.00;;;;2063083;28;20202;-66
2023/10/24 04:17:46;;;;;;;2.47;2.00;;;;;21.60;99238.00;;;;2060763;28;20219;-66
2023/10/24 04:18:46;;;;;;;3.83;2.57;;;;;21.60;99233.00;;;;2055079;28;20737;-66
2023/10/24 04:19:47;;;;;;;2.83;2.27;;;;;21.60;99228.00;;;;2049382;28;20762;-66
2023/10/24 04:20:47;;;;;;;2.33;1.73;;;;;21.60;99234.00;;;;2058556;28;20325;-66
2023/10/24 04:21:48;;;;;;;2.90;2.10;;;;;21.60;99226.00;;;;2062699;28;20254;-66
2023/10/24 04:22:48;;;;;;;2.20;1.93;;;;;21.60;99236.00;;;;2063822;28;20215;-66
2023/10/24 04:23:48;;;;;;;4.53;2.17;;;;;21.60;99238.00;;;;2060410;28;20593;-66
2023/10/24 04:24:49;;;;;;;2.20;1.73;;;;;21.60;99242.00;;;;2055641;28;20214;-66
2023/10/24 04:25:49;;;;;;;4.00;2.27;;;;;21.60;99232.00;;;;2074031;28;20205;-66
2023/10/24 04:26:49;;;;;;;2.90;2.10;;;;;21.60;99220.00;;;;2064438;28;20210;-66
2023/10/24 04:27:50;;;;;;;3.07;2.03;;;;;21.60;99218.00;;;;2058810;28;20235;-66
2023/10/24 04:28:50;;;;;;;1.77;1.53;;;;;21.60;99216.00;;;;2059174;28;20211;-66
2023/10/24 04:29:51;;;;;;;2.40;2.00;;;;;21.60;99222.00;;;;2057241;28;20237;-66
2023/10/24 04:30:51;;;;;;;2.77;2.07;;;;;21.60;99223.00;;;;2048937;28;20247;-66
2023/10/24 04:31:52;;;;;;;3.33;2.10;;;;;21.60;99224.00;;;;2060036;28;20211;-66
2023/10/24 04:32:52;;;;;;;2.40;1.93;;;;;21.60;99224.00;;;;2059311;28;20204;-66
2023/10/24 04:33:53;;;;;;;2.37;1.57;;;;;21.60;99218.00;;;;2072186;28;20248;-66
2023/10/24 04:34:53;;;;;;;2.17;1.77;;;;;21.60;99225.00;;;;2065297;28;20247;-66
2023/10/24 04:35:54;;;;;;;3.50;1.90;;;;;21.60;99220.00;;;;2067136;28;20661;-66
2023/10/24 04:36:54;;;;;;;2.10;1.60;;;;;21.60;99215.00;;;;2071114;28;20206;-66
2023/10/24 04:37:54;;;;;;;4.17;1.90;;;;;21.60;99222.00;;;;2067675;28;20195;-66
2023/10/24 04:38:55;;;;;;;2.50;1.93;;;;;21.60;99190.00;;;;2071618;28;20228;-66
2023/10/24 04:39:55;;;;;;;2.00;1.50;;;;;21.60;99235.00;;;;2061469;28;20225;-66
2023/10/24 04:40:55;;;;;;;3.20;1.97;;;;;21.60;99237.00;;;;2070503;28;20631;-66
2023/10/24 04:41:56;;;;;;;2.27;1.63;;;;;21.60;99239.00;;;;2071242;28;20730;-66
2023/10/24 04:42:56;;;;;;;3.00;1.80;;;;;21.60;99230.00;;;;2071692;28;20237;-67
2023/10/24 04:43:56;;;;;;;2.67;1.73;;;;;21.60;99235.00;;;;2066394;28;20203;-67
2023/10/24 04:44:57;;;;;;;2.67;1.83;;;;;21.50;99236.00;;;;2059629;28;20228;-67
2023/10/24 04:45:57;;;;;;;2.87;1.73;;;;;21.60;99236.00;;;;2071353;28;20290;-66
2023/10/24 04:46:57;;;;;;;3.80;1.77;;;;;21.60;99237.00;;;;2071174;28;20194;-66
2023/10/24 04:47:59;;;;;;;3.60;1.60;;;;;21.60;99232.00;;;;2074145;28;20274;-66
2023/10/24 04:48:59;;;;;;;2.00;1.55;;;;;21.60;99229.00;;;;2062984;28;20242;-67
2023/10/24 04:49:59;;;;;;;2.80;1.70;;;;;21.60;99235.00;;;;2051751;28;20274;-66
2023/10/24 04:51:00;;;;;;;2.27;1.70;;;;;21.60;99227.00;;;;2071027;28;20198;-66
2023/10/24 04:52:00;;;;;;;3.87;2.03;;;;;21.60;99223.00;;;;2071025;28;20226;-66
2023/10/24 04:53:00;;;;;;;2.50;1.60;;;;;21.60;99235.00;;;;2068570;28;20217;-66
2023/10/24 04:54:01;;;;;;;4.03;2.07;;;;;21.60;99242.00;;;;2066673;28;20207;-66
2023/10/24 04:55:03;;;;;;;2.90;1.60;;;;;21.60;99252.00;;;;2060658;28;20815;-66
2023/10/24 04:56:03;;;;;;;3.35;1.40;;;;;21.60;99254.00;;;;2060293;28;20217;-66
2023/10/24 04:57:04;;;;;;;3.73;1.50;;;;;21.60;99243.00;;;;2066106;28;20737;-66
2023/10/24 04:58:05;;;;;;;1.87;1.43;;;;;21.60;99215.00;;;;2070878;28;20225;-66
2023/10/24 04:59:05;;;;;;;2.28;1.80;;;;;21.60;99242.00;;;;2057235;28;20298;-66
2023/10/24 05:00:06;;;;;;;2.00;1.63;;;;;21.60;99241.00;;;;2051967;28;20553;-66
2023/10/24 05:01:08;;;;;;;2.50;1.70;;;;;21.60;99246.00;;;;2070291;28;20693;-66
2023/10/24 05:02:08;;;;;;;1.83;1.40;;;;;21.60;99237.00;;;;2075434;28;20448;-66
2023/10/24 05:03:08;;;;;;;1.77;1.10;;;;;21.60;99224.00;;;;2068759;28;20221;-66